WS65 weather

Wausau Hospital Center Heliport
Wausau, Wisconsin, United States

Public forecast

Using degrees Fahrenheit for public forecast. Weather courtesy of forecast.io.

Closest aviation weather report (METAR) to Wausau Hospital Center Heliport

Closest report is Wausau Downtown Airport, 3.0 nm (5.6 km) SE. Retrieved 2020/02/17 10:54 UTC (57 minutes ago):

KAUW 171054Z AUTO 11009KT 10SM OVC034 M08/M16 A3005 RMK AO2 SLP204 T10831156

Closest aviation forecast (TAF) to Wausau Hospital Center Heliport

Closest forecast is Wausau Downtown Airport, 3.0 nm (5.6 km) SE. Retrieved 2020/02/17 06:39 UTC (5 hours ago):

TAF KAUW 170536Z 1706/1806 12005KT P6SM BKN045 FM170900 12007KT P6SM OVC030 FM171200 13007KT P6SM -SHSN OVC035 FM171500 13009G17KT 4SM -SN OVC035 FM171600 14010G18KT 2SM -SN OVC008 FM171800 13008G15KT 1SM -SHSN OVC009 FM180400 03004KT 4SM -SN OVC015